Portada
METAR-TAF:

METAR-TAF

Aeropuertos :

Aeropuerto Internacional de Dakar-Yoff/Léopold Sédar Senghor

Dakar, Senegal

latitud: 14-44N, longitud: 017-30W, altitud: 27 m

Observación

El informe se hizo hace 1 hora y 2 minutos, a las 12:00 UTC
Viento 14 kt del noreste
Temperatura 24°C
Humedad 44%
Presión 1016 hPa
Visibilidad: 8000 m

METAR: GOOY 171200Z 04014KT 8000 NSC 24/11 Q1016

Hora: 13:02 (13:02 UTC)

Pronóstico

El informe se hizo hace 1 hora y 41 minutos, a las 11:21 UTC
Pronóstico válido del 17 a las 12 UTC al 18 a las 18 UTC
Viento 12 kt del este-noreste
Visibilidad: 8000 m
Evolucionando progresivamente
del 17 a las 14 UTC al 17 a las 16 UTC
Visibilidad: 4000 m
Polvo extendido

TAF: GOOY 171121Z 1712/1818 06012KT 8000 NSC BECMG 1714/1716 4000 DU

Observaciones y pronósticos meteorológicos de más de 4000 aeropuertos (mensajes METAR y TAF).

Los puntos amarillos y rojos representan las estaciones disponibles.

Ponga el ratón en el punto deseado para ver el nombre de la estación.

Haga clic para ver las observaciones y los pronósticos meteorológicos.

Para cambiar el mapa : haga clic en los botones verdes con una cruz de color negro para hacer un zoom, en el botón verde con un guión para alejar o en las flechas verdes para mapas adyacentes.


METAR-TAF: